This is the latest recevied weather packets stored in our database for station/object KE8DDT-7. If no packets are shown the sender has not sent any weather packets the latest 10 day(s).
| Time | Temp. | Humidity | Pressure | Rain* | Wind** | Luminosity | Snow |
|---|---|---|---|---|---|---|---|
| 1788443408 | 26.11° C | 84% | 1006.8 hPa | 0 mm | - | 18 W/m² | - |
| 1788443108 | 26.11° C | 84% | 1006.6 hPa | 0 mm | - | 21 W/m² | - |
| 1788442808 | 26.11° C | 84% | 1006.5 hPa | 0 mm | - | 25 W/m² | - |
| 1788442508 | 26.11° C | 84% | 1006.7 hPa | 0 mm | - | 30 W/m² | - |
| 1788442208 | 26.11° C | 84% | 1006.8 hPa | 0 mm | - | 40 W/m² | - |
| 1788441608 | 26.11° C | 86% | 1007 hPa | 0 mm | - | 81 W/m² | - |
| 1788441008 | 25° C | 88% | 1007 hPa | 0 mm | - | 445 W/m² | - |
| 1788440408 | 24.44° C | 89% | 1007 hPa | 0 mm | - | 364 W/m² | - |
| 1788440108 | 24.44° C | 89% | 1006.9 hPa | 0 mm | - | 301 W/m² | - |
| 1788439808 | 23.89° C | 89% | 1006.7 hPa | 0 mm | - | 262 W/m² | - |
| 1788439508 | 23.89° C | 90% | 1006.8 hPa | 0 mm | - | 237 W/m² | - |
| 1788439208 | 23.33° C | 90% | 1006.8 hPa | 0 mm | - | 218 W/m² | - |
| 1788438908 | 23.33° C | 90% | 1006.8 hPa | 0 mm | - | 204 W/m² | - |
| 1788438308 | 23.33° C | 90% | 1006.9 hPa | 0 mm | - | 169 W/m² | - |
| 1788438008 | 22.78° C | 90% | 1007 hPa | 0 mm | - | 148 W/m² | - |
| 1788437408 | 22.78° C | 90% | 1007 hPa | 0 mm | - | 49 W/m² | - |
| 1788436808 | 22.78° C | 90% | 1006.9 hPa | 0 mm | - | 42 W/m² | - |
| 1788436508 | 22.78° C | 90% | 1006.9 hPa | 0 mm | - | 39 W/m² | - |
| 1788435608 | 22.22° C | 89% | 1006.8 hPa | 0 mm | - | 28 W/m² | - |
| 1788435308 | 22.22° C | 89% | 1006.9 hPa | 0 mm | - | 25 W/m² | - |
| 1788435008 | 22.22° C | 89% | 1006.9 hPa | 0 mm | - | 19 W/m² | - |
| 1788434408 | 22.22° C | 89% | 1006.8 hPa | 0 mm | - | 11 W/m² | - |
| 1788434108 | 22.22° C | 89% | 1006.8 hPa | 0 mm | - | 9 W/m² | - |
| 1788433808 | 22.22° C | 89% | 1006.8 hPa | 0 mm | - | 5 W/m² | - |
| 1788433508 | 22.22° C | 89% | 1006.7 hPa | 0 mm | - | 0 W/m² | - |
* Rain latest hour (hover to see other rain measurements)
** Current wind speed in m/s (hover to see current wind gust speed)